Time;durP1;ratioP1;P1;durP2;ratioP2;P2;SDS_P1;SDS_P2;PMS_P1;PMS_P2;Temp;Humidity;BMP_temperature;BMP_pressure;BME280_temperature;BME280_humidity;BME280_pressure;Samples;Min_cycle;Max_cycle;Signal;HPM_P1;HPM_P2
2023/12/06 00:01:08;;;;;;;29.90;13.63;;;2.50;81.10;;;;;;5087443;28;20106;-85
2023/12/06 00:03:35;;;;;;;27.57;13.87;;;2.50;81.40;;;;;;5088917;28;20048;-84
2023/12/06 00:06:03;;;;;;;30.85;14.80;;;2.50;81.20;;;;;;5090449;28;20787;-85
2023/12/06 00:08:30;;;;;;;31.80;15.02;;;2.60;81.00;;;;;;5073862;28;20833;-84
2023/12/06 00:10:59;;;;;;;29.30;13.95;;;2.60;80.90;;;;;;5090853;28;20996;-84
2023/12/06 00:13:26;;;;;;;31.25;14.00;;;2.60;80.80;;;;;;5090785;28;20060;-84
2023/12/06 00:15:53;;;;;;;30.57;13.70;;;2.60;80.80;;;;;;5090905;28;20052;-84
2023/12/06 00:18:20;;;;;;;31.13;14.00;;;2.60;80.80;;;;;;5073814;28;20377;-84
2023/12/06 00:20:47;;;;;;;32.40;13.65;;;2.60;80.80;;;;;;5092230;28;20076;-84
2023/12/06 00:23:14;;;;;;;26.90;13.00;;;2.50;80.80;;;;;;5090718;28;20048;-85
2023/12/06 00:25:43;;;;;;;25.52;11.38;;;2.50;80.80;;;;;;5073990;28;20106;-84
2023/12/06 00:28:11;;;;;;;29.73;13.77;;;2.50;80.90;;;;;;5090868;28;20060;-84
2023/12/06 00:30:38;;;;;;;28.80;13.13;;;2.50;80.90;;;;;;5073674;28;20350;-85
2023/12/06 00:33:07;;;;;;;26.60;13.00;;;2.50;80.90;;;;;;5091985;28;20045;-84
2023/12/06 00:35:34;;;;;;;30.17;14.30;;;2.50;81.00;;;;;;5090896;28;20075;-85
2023/12/06 00:38:01;;;;;;;29.48;13.18;;;2.50;81.00;;;;;;5090390;28;20053;-85
2023/12/06 00:40:28;;;;;;;29.53;14.33;;;2.50;81.10;;;;;;5090308;28;20064;-84
2023/12/06 00:42:55;;;;;;;27.48;12.77;;;2.40;81.20;;;;;;5090359;28;20295;-84
2023/12/06 00:45:23;;;;;;;16.83;7.88;;;2.50;81.10;;;;;;5073733;28;20059;-84
2023/12/06 00:47:50;;;;;;;32.22;14.75;;;2.40;81.30;;;;;;5090274;28;20059;-84
2023/12/06 00:50:18;;;;;;;29.83;14.40;;;2.40;81.60;;;;;;5090363;28;20061;-84
2023/12/06 00:52:45;;;;;;;31.03;13.17;;;2.40;81.40;;;;;;5072714;28;20045;-85
2023/12/06 00:55:12;;;;;;;29.67;13.93;;;2.40;81.40;;;;;;5090052;28;20323;-85
2023/12/06 00:57:39;;;;;;;32.28;14.98;;;2.40;81.50;;;;;;5089936;28;21092;-84
2023/12/06 01:00:08;;;;;;;31.83;14.85;;;2.40;81.60;;;;;;5089958;28;20049;-84
2023/12/06 01:02:38;;;;;;;32.40;14.20;;;2.40;81.50;;;;;;5091316;28;20056;-84
2023/12/06 01:05:06;;;;;;;31.13;13.83;;;2.40;81.70;;;;;;5090305;28;20135;-85
2023/12/06 01:07:33;;;;;;;28.63;13.43;;;2.40;81.70;;;;;;5090057;28;20248;-85
2023/12/06 01:10:01;;;;;;;31.85;14.75;;;2.40;81.70;;;;;;5093775;28;20144;-85
2023/12/06 01:12:29;;;;;;;33.13;14.88;;;2.40;81.70;;;;;;5089819;28;20055;-84
2023/12/06 01:14:56;;;;;;;31.48;14.65;;;2.40;81.90;;;;;;5107029;28;20550;-84
2023/12/06 01:17:23;;;;;;;33.57;14.93;;;2.30;82.00;;;;;;5088988;28;20059;-84
2023/12/06 01:19:51;;;;;;;30.48;13.50;;;2.30;82.10;;;;;;5072552;28;20298;-85
2023/12/06 01:22:18;;;;;;;33.50;13.65;;;2.30;82.20;;;;;;5091341;28;20052;-85
2023/12/06 01:24:47;;;;;;;33.50;14.50;;;2.30;82.30;;;;;;5072789;28;20139;-85
2023/12/06 01:27:14;;;;;;;31.05;13.63;;;2.30;82.40;;;;;;5072780;28;20095;-85
2023/12/06 01:29:42;;;;;;;32.43;14.50;;;2.20;82.80;;;;;;5089864;28;20044;-85
2023/12/06 01:32:09;;;;;;;34.10;14.35;;;2.20;82.90;;;;;;5072612;28;20749;-84
2023/12/06 01:34:36;;;;;;;24.63;9.65;;;2.20;83.00;;;;;;5090949;28;21013;-85
2023/12/06 01:37:05;;;;;;;17.65;5.78;;;2.20;83.00;;;;;;5106796;28;20048;-85
2023/12/06 01:39:33;;;;;;;20.08;9.13;;;2.10;83.10;;;;;;5089511;28;20100;-85
2023/12/06 01:42:00;;;;;;;30.47;13.77;;;2.10;83.70;;;;;;5106657;28;20052;-85
2023/12/06 01:44:27;;;;;;;34.10;15.18;;;2.00;83.60;;;;;;5090707;28;20415;-85
2023/12/06 01:46:54;;;;;;;31.40;13.27;;;2.00;83.70;;;;;;5072606;28;20485;-85
2023/12/06 01:49:21;;;;;;;31.48;12.00;;;2.00;83.70;;;;;;5106477;28;20497;-84
2023/12/06 01:51:49;;;;;;;33.45;14.18;;;1.90;83.70;;;;;;5106153;28;20049;-84
2023/12/06 01:54:17;;;;;;;19.50;7.70;;;1.90;83.50;;;;;;5090330;28;20472;-84
2023/12/06 01:56:45;;;;;;;34.70;14.55;;;1.90;83.40;;;;;;5072360;28;20259;-85
2023/12/06 01:59:12;;;;;;;32.95;14.20;;;1.80;83.50;;;;;;5071986;28;20083;-85
2023/12/06 02:01:40;;;;;;;32.45;13.73;;;1.80;83.70;;;;;;5089384;28;20051;-85
2023/12/06 02:04:07;;;;;;;31.98;13.23;;;1.80;84.00;;;;;;5072065;28;20096;-85
2023/12/06 02:06:34;;;;;;;32.97;14.23;;;1.80;84.70;;;;;;5089163;28;20060;-84
2023/12/06 02:09:03;;;;;;;31.60;12.40;;;1.80;84.50;;;;;;5088821;28;20256;-85
2023/12/06 02:11:32;;;;;;;35.58;15.20;;;1.80;85.10;;;;;;5088600;28;20055;-85
2023/12/06 02:13:59;;;;;;;29.90;12.82;;;1.80;84.70;;;;;;5072003;28;20520;-84
2023/12/06 02:16:26;;;;;;;34.28;15.35;;;1.80;85.00;;;;;;5089055;28;20057;-84
2023/12/06 02:18:53;;;;;;;31.77;13.20;;;1.80;85.00;;;;;;5072077;28;21073;-85
2023/12/06 02:21:21;;;;;;;26.25;11.23;;;1.80;84.80;;;;;;5090521;28;20776;-84
2023/12/06 02:23:50;;;;;;;29.75;13.05;;;1.70;85.60;;;;;;5072045;28;20941;-85
2023/12/06 02:26:18;;;;;;;18.40;7.05;;;1.70;85.40;;;;;;5071900;28;20159;-85
2023/12/06 02:28:45;;;;;;;28.80;12.45;;;1.70;85.80;;;;;;5088596;28;20067;-85
2023/12/06 02:31:13;;;;;;;30.90;13.40;;;1.70;85.70;;;;;;5088643;28;20157;-84
2023/12/06 02:33:40;;;;;;;18.08;6.88;;;1.70;85.60;;;;;;5088750;28;20298;-85
2023/12/06 02:36:11;;;;;;;26.23;11.30;;;1.70;85.80;;;;;;5089046;28;20058;-85
2023/12/06 02:38:40;;;;;;;28.42;12.55;;;1.70;86.20;;;;;;5072029;28;20052;-85
2023/12/06 02:41:10;;;;;;;29.50;13.30;;;1.70;86.20;;;;;;5071779;28;20052;-84
2023/12/06 02:43:39;;;;;;;26.73;12.17;;;1.70;86.10;;;;;;5088594;28;20538;-85
2023/12/06 02:46:06;;;;;;;28.10;12.60;;;1.70;86.30;;;;;;5071445;28;20667;-84
2023/12/06 02:48:34;;;;;;;28.95;12.18;;;1.70;86.10;;;;;;5071702;28;20513;-85
2023/12/06 02:51:01;;;;;;;22.40;9.93;;;1.70;86.30;;;;;;5071262;28;20055;-84
2023/12/06 02:53:28;;;;;;;28.95;13.88;;;1.70;86.70;;;;;;5089958;28;20056;-85
2023/12/06 02:55:55;;;;;;;32.40;14.20;;;1.60;87.00;;;;;;5071349;28;20513;-85
2023/12/06 02:58:22;;;;;;;26.70;11.52;;;1.70;86.60;;;;;;5089810;28;21219;-85
2023/12/06 03:00:51;;;;;;;24.13;11.13;;;1.70;86.30;;;;;;5105314;28;20052;-85
2023/12/06 03:03:18;;;;;;;27.10;12.05;;;1.70;86.70;;;;;;5088433;28;20791;-85
2023/12/06 03:05:45;;;;;;;24.80;11.55;;;1.60;87.00;;;;;;5087904;28;20136;-85
2023/12/06 03:08:14;;;;;;;28.63;11.90;;;1.60;86.60;;;;;;5071733;28;20064;-84
2023/12/06 03:10:41;;;;;;;26.83;12.38;;;1.60;87.00;;;;;;5087774;28;20363;-84
2023/12/06 03:13:08;;;;;;;25.50;11.75;;;1.60;87.30;;;;;;5088070;28;20060;-84
2023/12/06 03:15:34;;;;;;;27.92;12.63;;;1.60;87.30;;;;;;5088133;28;20052;-84
2023/12/06 03:18:03;;;;;;;29.88;12.82;;;1.60;87.00;;;;;;5071303;28;20131;-84
2023/12/06 03:20:30;;;;;;;27.17;11.77;;;1.60;86.70;;;;;;5104593;28;20048;-84
2023/12/06 03:22:57;;;;;;;28.35;12.57;;;1.60;86.70;;;;;;5089273;28;20284;-85
2023/12/06 03:25:24;;;;;;;18.35;7.10;;;1.50;86.60;;;;;;5071247;28;20053;-85
2023/12/06 03:27:51;;;;;;;27.67;12.63;;;1.50;86.90;;;;;;5087855;28;20057;-84
2023/12/06 03:30:18;;;;;;;27.67;11.13;;;1.50;87.00;;;;;;5087752;28;21030;-85
2023/12/06 03:32:44;;;;;;;28.70;12.97;;;1.60;87.50;;;;;;5087604;28;20862;-85
2023/12/06 03:35:13;;;;;;;24.60;12.25;;;1.60;87.50;;;;;;5071135;28;20262;-84
2023/12/06 03:37:40;;;;;;;25.90;11.95;;;1.60;87.20;;;;;;5071033;28;20051;-85
2023/12/06 03:40:08;;;;;;;24.63;11.23;;;1.60;87.30;;;;;;5086552;28;20051;-84
2023/12/06 03:42:35;;;;;;;22.90;11.60;;;1.60;87.20;;;;;;5087549;28;20060;-85
2023/12/06 03:45:02;;;;;;;24.37;11.30;;;1.60;87.20;;;;;;5090751;28;20062;-85
2023/12/06 03:47:29;;;;;;;23.92;12.13;;;1.60;87.20;;;;;;5070359;28;20450;-85
2023/12/06 03:49:56;;;;;;;24.75;12.18;;;1.60;87.40;;;;;;5087312;28;20627;-85
2023/12/06 03:52:24;;;;;;;26.95;11.95;;;1.60;87.40;;;;;;5087011;28;20144;-85
2023/12/06 03:54:51;;;;;;;25.23;11.05;;;1.60;87.60;;;;;;5088764;28;20049;-84
2023/12/06 03:57:18;;;;;;;27.03;12.53;;;1.60;87.60;;;;;;5087403;28;20052;-85
2023/12/06 03:59:45;;;;;;;21.92;10.65;;;1.70;87.50;;;;;;5054582;28;20856;-85
2023/12/06 04:02:12;;;;;;;24.52;10.80;;;1.70;87.40;;;;;;5049919;28;20045;-85
2023/12/06 04:04:39;;;;;;;24.27;11.93;;;1.60;87.70;;;;;;5049960;28;20045;-85
2023/12/06 04:07:06;;;;;;;21.13;8.75;;;1.70;87.50;;;;;;5083775;28;20437;-84
2023/12/06 04:09:34;;;;;;;23.33;10.63;;;1.60;87.50;;;;;;5049443;28;20049;-85
2023/12/06 04:12:01;;;;;;;23.40;11.05;;;1.60;87.80;;;;;;5068117;28;20306;-85
2023/12/06 04:14:28;;;;;;;21.48;9.25;;;1.70;88.00;;;;;;5066978;28;20047;-85
2023/12/06 04:16:55;;;;;;;16.80;6.53;;;1.70;87.90;;;;;;5066456;28;20063;-86
2023/12/06 04:19:22;;;;;;;23.15;11.40;;;1.70;87.90;;;;;;5066380;28;20170;-84
2023/12/06 04:21:48;;;;;;;21.80;9.87;;;1.70;87.90;;;;;;5066798;28;20458;-85
2023/12/06 04:24:15;;;;;;;25.27;11.95;;;1.70;87.70;;;;;;5050669;28;20279;-84
2023/12/06 04:26:44;;;;;;;18.70;8.43;;;1.70;87.50;;;;;;5049896;28;20048;-85
2023/12/06 04:29:11;;;;;;;21.88;10.70;;;1.70;87.30;;;;;;5066328;28;20122;-85
2023/12/06 04:31:38;;;;;;;17.67;8.68;;;1.70;87.40;;;;;;5049411;28;20063;-85
2023/12/06 04:34:05;;;;;;;19.03;10.33;;;1.70;87.70;;;;;;5066469;28;20049;-85
2023/12/06 04:36:32;;;;;;;21.23;10.68;;;1.70;87.50;;;;;;5066822;28;20275;-85
2023/12/06 04:38:59;;;;;;;19.88;9.38;;;1.70;87.60;;;;;;5066017;28;20045;-85
2023/12/06 04:41:26;;;;;;;20.25;9.90;;;1.70;87.30;;;;;;5083398;28;20045;-84
2023/12/06 04:43:54;;;;;;;21.92;10.20;;;1.70;87.60;;;;;;5049575;28;20499;-85
2023/12/06 04:46:21;;;;;;;23.40;10.50;;;1.70;87.80;;;;;;5049744;28;20091;-84
2023/12/06 04:48:48;;;;;;;19.55;10.02;;;1.70;87.90;;;;;;5066611;28;20248;-85
2023/12/06 04:51:15;;;;;;;22.02;10.82;;;1.70;88.00;;;;;;5068224;28;20049;-84
2023/12/06 04:53:42;;;;;;;22.80;10.73;;;1.70;88.00;;;;;;5086929;28;20052;-84
2023/12/06 04:56:09;;;;;;;20.75;9.50;;;1.70;88.00;;;;;;5069875;28;20068;-84
2023/12/06 04:58:37;;;;;;;21.17;10.10;;;1.70;87.90;;;;;;5086899;28;20999;-84
2023/12/06 05:01:05;;;;;;;20.25;10.45;;;1.80;87.90;;;;;;5053002;28;20374;-84
2023/12/06 05:03:32;;;;;;;20.80;10.70;;;1.80;87.70;;;;;;5053063;28;20061;-83
2023/12/06 05:05:59;;;;;;;18.10;9.43;;;1.70;87.50;;;;;;5070139;28;20053;-84
2023/12/06 05:08:26;;;;;;;19.00;8.52;;;1.80;87.50;;;;;;5071274;28;20047;-85
2023/12/06 05:10:53;;;;;;;16.93;7.87;;;1.80;87.60;;;;;;5069291;28;20126;-85
2023/12/06 05:13:20;;;;;;;17.75;8.98;;;1.80;87.70;;;;;;5069834;28;20276;-84
2023/12/06 05:15:48;;;;;;;18.45;8.13;;;1.70;87.70;;;;;;5069997;28;20053;-85
2023/12/06 05:18:16;;;;;;;17.13;8.48;;;1.70;87.60;;;;;;5069849;28;20131;-85
2023/12/06 05:20:43;;;;;;;16.33;7.88;;;1.70;87.60;;;;;;5052665;28;20049;-85
2023/12/06 05:23:10;;;;;;;15.93;8.63;;;1.70;88.00;;;;;;5069644;28;20107;-85
2023/12/06 05:25:37;;;;;;;17.98;9.35;;;1.70;88.10;;;;;;5069547;28;20291;-85
2023/12/06 05:28:05;;;;;;;19.30;9.23;;;1.70;87.80;;;;;;5070973;28;20095;-85
2023/12/06 05:30:32;;;;;;;14.52;6.63;;;1.70;87.80;;;;;;5069133;28;21028;-85
2023/12/06 05:33:00;;;;;;;17.58;9.20;;;1.70;88.00;;;;;;5052794;28;20124;-84
2023/12/06 05:35:28;;;;;;;18.67;8.93;;;1.70;88.20;;;;;;5052588;28;20056;-85
2023/12/06 05:37:55;;;;;;;19.25;8.85;;;1.70;88.20;;;;;;5069863;28;20847;-84
2023/12/06 05:40:22;;;;;;;20.63;7.90;;;1.80;88.00;;;;;;5069037;28;21005;-84
2023/12/06 05:42:49;;;;;;;19.83;8.95;;;1.80;87.90;;;;;;5069593;28;20056;-85
2023/12/06 05:45:17;;;;;;;19.85;10.02;;;1.80;87.80;;;;;;5069225;28;20525;-85
2023/12/06 05:47:44;;;;;;;16.13;8.57;;;1.80;88.00;;;;;;5068862;28;20045;-85
2023/12/06 05:50:12;;;;;;;18.17;9.55;;;1.80;88.00;;;;;;5086338;28;20283;-85
2023/12/06 05:52:41;;;;;;;16.70;8.02;;;1.80;88.00;;;;;;5070049;28;20071;-85
2023/12/06 05:55:09;;;;;;;17.63;8.15;;;1.80;87.90;;;;;;5052439;28;20052;-84
2023/12/06 05:57:36;;;;;;;20.27;9.30;;;1.80;87.70;;;;;;5052006;28;20131;-84
2023/12/06 06:00:05;;;;;;;19.83;10.30;;;1.90;87.70;;;;;;5085773;28;20047;-84
2023/12/06 06:02:37;;;;;;;19.58;9.60;;;1.90;87.60;;;;;;5069409;28;20276;-85
2023/12/06 06:05:05;;;;;;;18.73;9.63;;;1.90;87.60;;;;;;5086063;28;20041;-85
2023/12/06 06:07:33;;;;;;;13.63;6.22;;;1.90;87.70;;;;;;5051798;28;20053;-84
2023/12/06 06:10:02;;;;;;;12.27;6.50;;;1.80;88.00;;;;;;5051879;28;20463;-85
2023/12/06 06:12:29;;;;;;;10.20;5.07;;;1.80;88.10;;;;;;5070152;28;20103;-84
2023/12/06 06:14:56;;;;;;;18.75;8.40;;;1.80;88.20;;;;;;5068799;28;20291;-84
2023/12/06 06:17:24;;;;;;;14.48;6.35;;;1.80;88.70;;;;;;5068724;28;20124;-84
2023/12/06 06:19:51;;;;;;;20.60;9.98;;;1.90;89.00;;;;;;5069026;28;20053;-85
2023/12/06 06:22:19;;;;;;;17.33;9.05;;;1.80;88.80;;;;;;5068874;28;20049;-84
2023/12/06 06:24:46;;;;;;;17.43;7.90;;;1.90;88.90;;;;;;5069224;28;20837;-84
2023/12/06 06:27:14;;;;;;;18.65;9.25;;;1.90;89.10;;;;;;5085783;28;20259;-84
2023/12/06 06:29:41;;;;;;;18.40;8.95;;;1.90;89.40;;;;;;5051531;28;20357;-84
2023/12/06 06:32:08;;;;;;;19.02;8.90;;;1.90;89.00;;;;;;5068534;28;20143;-84
2023/12/06 06:34:35;;;;;;;18.27;9.85;;;1.90;88.90;;;;;;5069760;28;20103;-84
2023/12/06 06:37:02;;;;;;;18.60;8.40;;;1.90;88.80;;;;;;5068370;28;20045;-85
2023/12/06 06:39:29;;;;;;;17.75;9.13;;;1.90;88.90;;;;;;5051546;28;20284;-84
2023/12/06 06:41:56;;;;;;;21.83;10.30;;;2.00;88.90;;;;;;5068463;28;20053;-84
2023/12/06 06:44:25;;;;;;;19.20;9.60;;;2.00;88.90;;;;;;5051603;28;20429;-85
2023/12/06 06:46:52;;;;;;;19.15;9.07;;;1.90;88.80;;;;;;5051133;28;20045;-84
2023/12/06 06:49:19;;;;;;;18.73;9.80;;;2.00;88.90;;;;;;5068215;28;20611;-84
2023/12/06 06:51:46;;;;;;;20.58;9.50;;;2.00;88.90;;;;;;5050882;28;20254;-84
2023/12/06 06:54:13;;;;;;;15.18;7.88;;;2.00;88.90;;;;;;5068411;28;20840;-85
2023/12/06 06:56:40;;;;;;;19.50;9.75;;;2.00;89.00;;;;;;5069768;28;20781;-85
2023/12/06 06:59:07;;;;;;;16.45;7.47;;;2.00;89.00;;;;;;5085361;28;20048;-84
2023/12/06 07:01:35;;;;;;;20.67;9.40;;;2.00;89.00;;;;;;5067712;28;20056;-84
2023/12/06 07:04:03;;;;;;;20.65;9.93;;;2.00;89.10;;;;;;5068273;28;20256;-84
2023/12/06 07:06:31;;;;;;;21.20;10.95;;;2.00;89.00;;;;;;5068071;28;20056;-84
2023/12/06 07:08:58;;;;;;;22.55;11.27;;;2.00;89.10;;;;;;5064453;28;20045;-85
2023/12/06 07:11:25;;;;;;;19.15;9.23;;;2.00;89.20;;;;;;5083067;28;20051;-85
2023/12/06 07:13:52;;;;;;;16.40;7.70;;;2.00;89.20;;;;;;5059256;28;20882;-85
2023/12/06 07:16:19;;;;;;;20.25;10.10;;;2.00;89.30;;;;;;5072400;28;20847;-85
2023/12/06 07:18:49;;;;;;;18.30;9.68;;;2.00;89.30;;;;;;5055863;28;20059;-84
2023/12/06 07:21:16;;;;;;;19.23;10.25;;;2.00;89.30;;;;;;5062173;28;20049;-84
2023/12/06 07:23:44;;;;;;;18.38;8.60;;;2.00;89.30;;;;;;5070530;28;20469;-84
2023/12/06 07:26:12;;;;;;;20.60;9.67;;;2.00;89.50;;;;;;5056785;28;20053;-85
2023/12/06 07:28:39;;;;;;;18.10;9.80;;;2.00;89.40;;;;;;5053984;28;20755;-85
2023/12/06 07:31:06;;;;;;;18.63;8.65;;;2.00;89.40;;;;;;5076559;28;20668;-85
2023/12/06 07:33:35;;;;;;;18.02;8.63;;;2.00;89.60;;;;;;5070809;28;20059;-85
2023/12/06 07:36:05;;;;;;;13.70;6.90;;;2.10;89.50;;;;;;5039095;28;20046;-86
2023/12/06 07:38:32;;;;;;;16.27;7.30;;;2.10;89.50;;;;;;5074581;28;20107;-85
2023/12/06 07:41:02;;;;;;;15.88;6.18;;;2.10;89.70;;;;;;5048703;28;20263;-85
2023/12/06 07:43:29;;;;;;;14.82;7.13;;;2.10;89.60;;;;;;5081762;28;20131;-85
2023/12/06 07:45:56;;;;;;;18.88;9.95;;;2.10;89.70;;;;;;5083263;28;20046;-85
2023/12/06 07:48:23;;;;;;;15.00;8.05;;;2.10;89.70;;;;;;5049067;28;20111;-85
2023/12/06 07:50:50;;;;;;;18.97;9.97;;;2.10;89.60;;;;;;5064015;28;20049;-85
2023/12/06 07:53:19;;;;;;;16.88;7.20;;;2.10;89.60;;;;;;5046611;28;20804;-86
2023/12/06 07:55:46;;;;;;;15.13;8.05;;;2.20;89.60;;;;;;5050624;28;20513;-85
2023/12/06 07:58:14;;;;;;;16.90;8.57;;;2.20;89.70;;;;;;5030132;28;20521;-85
2023/12/06 08:00:41;;;;;;;16.13;9.38;;;2.20;89.80;;;;;;5053408;28;20060;-77
2023/12/06 08:03:08;;;;;;;15.40;7.20;;;2.20;89.80;;;;;;5064130;28;20057;-78
2023/12/06 08:05:38;;;;;;;17.58;9.50;;;2.20;89.80;;;;;;5063606;28;20259;-80
2023/12/06 08:08:06;;;;;;;16.65;8.85;;;2.20;89.70;;;;;;5064309;28;20048;-80
2023/12/06 08:10:34;;;;;;;17.00;8.82;;;2.20;89.70;;;;;;5067651;28;20083;-80
2023/12/06 08:13:03;;;;;;;17.35;9.07;;;2.20;89.70;;;;;;5065715;28;20057;-80
2023/12/06 08:15:31;;;;;;;16.27;8.33;;;2.20;89.90;;;;;;5065065;28;20534;-80
2023/12/06 08:17:58;;;;;;;17.13;7.85;;;2.20;89.90;;;;;;5066375;28;20288;-80
2023/12/06 08:20:25;;;;;;;17.08;9.23;;;2.30;90.10;;;;;;5065287;28;20508;-81
2023/12/06 08:22:52;;;;;;;16.33;8.30;;;2.30;90.00;;;;;;5065010;28;20053;-81
2023/12/06 08:25:19;;;;;;;17.67;9.15;;;2.30;90.00;;;;;;5082633;28;20152;-81
2023/12/06 08:27:47;;;;;;;9.87;5.00;;;2.30;89.90;;;;;;5068660;28;20103;-82
2023/12/06 08:30:15;;;;;;;16.88;7.28;;;2.30;90.00;;;;;;5070232;28;20260;-82
2023/12/06 08:32:42;;;;;;;13.65;7.60;;;2.30;90.00;;;;;;5070346;28;20520;-82
2023/12/06 08:35:09;;;;;;;14.90;6.72;;;2.30;89.90;;;;;;5071647;28;20056;-81
2023/12/06 08:37:36;;;;;;;15.55;8.13;;;2.30;89.90;;;;;;5069653;28;20041;-81
2023/12/06 08:40:06;;;;;;;9.87;5.10;;;2.40;89.80;;;;;;5071449;28;20049;-81
2023/12/06 08:42:34;;;;;;;17.73;8.80;;;2.40;89.80;;;;;;5056261;28;20646;-81
2023/12/06 08:45:02;;;;;;;14.73;8.30;;;2.40;90.00;;;;;;5070123;28;20053;-81
2023/12/06 08:47:29;;;;;;;14.68;7.50;;;2.40;89.90;;;;;;5068151;28;20154;-81
2023/12/06 08:49:56;;;;;;;17.88;8.13;;;2.40;89.90;;;;;;5059600;28;20060;-79
2023/12/06 08:52:23;;;;;;;14.20;7.17;;;2.40;89.80;;;;;;5052999;28;20055;-80
2023/12/06 08:54:50;;;;;;;14.85;7.50;;;2.40;90.00;;;;;;5070453;28;20259;-83
2023/12/06 08:57:17;;;;;;;14.88;6.90;;;2.40;89.90;;;;;;5052902;28;20057;-79
2023/12/06 08:59:44;;;;;;;12.18;6.43;;;2.50;90.00;;;;;;5067420;28;20507;-82
2023/12/06 09:02:13;;;;;;;14.25;6.80;;;2.50;90.00;;;;;;5069284;28;20485;-85
2023/12/06 09:04:40;;;;;;;16.43;8.33;;;2.50;90.20;;;;;;5069614;28;20053;-81
2023/12/06 09:07:07;;;;;;;14.77;8.10;;;2.50;90.10;;;;;;5070557;28;20292;-85
2023/12/06 09:09:34;;;;;;;15.32;8.45;;;2.50;90.00;;;;;;5069010;28;20542;-80
2023/12/06 09:12:01;;;;;;;14.88;7.95;;;2.50;90.00;;;;;;5071472;28;20115;-83
2023/12/06 09:14:28;;;;;;;15.07;8.38;;;2.50;90.00;;;;;;5052204;28;20053;-83
2023/12/06 09:16:55;;;;;;;15.50;7.03;;;2.50;90.00;;;;;;5067835;28;20064;-83
2023/12/06 09:19:25;;;;;;;15.02;7.75;;;2.50;90.00;;;;;;5068436;28;20256;-82
2023/12/06 09:21:51;;;;;;;15.23;8.35;;;2.50;90.10;;;;;;5050986;28;20056;-82
2023/12/06 09:24:19;;;;;;;14.45;7.50;;;2.50;90.10;;;;;;5068032;28;20049;-82
2023/12/06 09:26:46;;;;;;;16.17;7.45;;;2.50;90.00;;;;;;5065305;28;20053;-82
2023/12/06 09:29:13;;;;;;;15.97;7.60;;;2.50;90.00;;;;;;5065410;28;20049;-84
2023/12/06 09:31:40;;;;;;;17.80;8.82;;;2.50;90.00;;;;;;5051929;28;20252;-84
2023/12/06 09:34:07;;;;;;;14.65;8.15;;;2.50;90.00;;;;;;5068956;28;20041;-83
2023/12/06 09:36:36;;;;;;;12.32;5.88;;;2.60;89.90;;;;;;5068575;28;20052;-83
2023/12/06 09:39:04;;;;;;;15.10;8.40;;;2.60;90.00;;;;;;5067929;28;20532;-82
2023/12/06 09:41:34;;;;;;;13.57;6.50;;;2.60;90.20;;;;;;5067880;28;20060;-86
2023/12/06 09:44:01;;;;;;;12.77;5.25;;;2.60;90.10;;;;;;5068650;28;20279;-83
2023/12/06 09:46:28;;;;;;;11.43;5.28;;;2.70;90.10;;;;;;5068687;28;20048;-83
2023/12/06 09:48:55;;;;;;;14.73;7.47;;;2.70;90.20;;;;;;5070287;28;20045;-83
2023/12/06 09:51:23;;;;;;;16.02;8.32;;;2.60;90.30;;;;;;5068040;28;20057;-80
2023/12/06 09:53:52;;;;;;;15.77;8.03;;;2.70;90.30;;;;;;5069096;28;20894;-81
2023/12/06 09:56:19;;;;;;;15.52;7.82;;;2.70;90.20;;;;;;5067868;28;20331;-79
2023/12/06 09:58:46;;;;;;;14.85;8.40;;;2.70;90.30;;;;;;5060053;28;20060;-80
2023/12/06 10:01:13;;;;;;;19.80;8.63;;;2.70;90.20;;;;;;5061531;28;20967;-80
2023/12/06 10:03:40;;;;;;;17.27;8.77;;;2.70;90.10;;;;;;5047079;28;20046;-81
2023/12/06 10:06:09;;;;;;;15.13;8.03;;;2.70;90.20;;;;;;5048439;28;20507;-81
2023/12/06 10:08:36;;;;;;;16.27;7.25;;;2.70;90.20;;;;;;5069818;28;20357;-82
2023/12/06 10:11:06;;;;;;;15.13;7.72;;;2.80;90.20;;;;;;5070926;28;20064;-79
2023/12/06 10:13:35;;;;;;;16.20;8.13;;;2.80;90.30;;;;;;5068035;28;20568;-81
2023/12/06 10:16:03;;;;;;;15.88;8.48;;;2.80;90.20;;;;;;5051561;28;20852;-81
2023/12/06 10:18:30;;;;;;;15.70;8.33;;;2.90;90.10;;;;;;5082125;28;20062;-81
2023/12/06 10:20:57;;;;;;;14.40;7.43;;;2.90;90.10;;;;;;5070434;28;20306;-81
2023/12/06 10:23:24;;;;;;;17.20;8.23;;;2.90;89.90;;;;;;5076591;28;20067;-81
2023/12/06 10:25:51;;;;;;;16.58;7.68;;;2.90;89.90;;;;;;5081412;28;20128;-83
2023/12/06 10:28:20;;;;;;;15.30;8.00;;;2.90;89.80;;;;;;5089266;28;20053;-82
2023/12/06 10:30:47;;;;;;;17.40;8.43;;;2.90;89.90;;;;;;5074680;28;20104;-82
2023/12/06 10:33:19;;;;;;;15.70;8.18;;;2.90;89.80;;;;;;5083596;28;20375;-81
2023/12/06 10:35:47;;;;;;;13.48;7.20;;;2.90;89.80;;;;;;5049924;28;20502;-81
2023/12/06 10:38:15;;;;;;;13.30;7.65;;;2.90;89.70;;;;;;5068233;28;20057;-82
2023/12/06 10:40:42;;;;;;;14.38;7.75;;;2.90;89.70;;;;;;5066921;28;20115;-82
2023/12/06 10:43:10;;;;;;;16.03;8.40;;;2.90;89.70;;;;;;5067333;28;20079;-82
2023/12/06 10:45:40;;;;;;;14.35;7.38;;;2.90;89.60;;;;;;5065685;28;20288;-83
2023/12/06 10:48:09;;;;;;;12.90;6.78;;;2.90;89.70;;;;;;5063100;28;20079;-82
2023/12/06 10:50:36;;;;;;;17.83;8.00;;;2.90;89.80;;;;;;5056759;28;20057;-82
2023/12/06 10:53:04;;;;;;;15.30;7.90;;;2.90;89.80;;;;;;5054582;28;20100;-82
2023/12/06 10:55:31;;;;;;;14.87;7.83;;;3.00;89.70;;;;;;5039018;28;20045;-82
2023/12/06 10:58:00;;;;;;;13.07;6.63;;;3.00;89.80;;;;;;5054965;28;20338;-83
2023/12/06 11:00:28;;;;;;;15.85;8.35;;;3.00;89.90;;;;;;5066881;28;20139;-84
2023/12/06 11:02:56;;;;;;;14.02;7.50;;;3.00;89.90;;;;;;5058404;28;20526;-83
2023/12/06 11:05:25;;;;;;;16.13;7.35;;;3.10;89.80;;;;;;5061254;28;20086;-83
2023/12/06 11:08:22;;;;;;;15.87;7.77;;;3.10;89.90;;;;;;5078999;28;20054;-82
2023/12/06 11:11:06;;;;;;;14.70;7.25;;;3.10;90.00;;;;;;5053269;28;20260;-82
2023/12/06 11:13:45;;;;;;;15.68;8.18;;;3.10;89.80;;;;;;5071181;28;20045;-82
2023/12/06 11:16:26;;;;;;;13.80;7.30;;;3.10;89.80;;;;;;5037134;28;20511;-82
2023/12/06 11:18:55;;;;;;;12.65;6.03;;;3.10;89.80;;;;;;5073554;28;20049;-83
2023/12/06 11:21:24;;;;;;;16.97;7.37;;;3.10;89.80;;;;;;5057171;28;20053;-84
2023/12/06 11:23:52;;;;;;;14.80;7.55;;;3.10;89.80;;;;;;5057146;28;20271;-84
2023/12/06 11:26:19;;;;;;;11.57;4.72;;;3.10;89.70;;;;;;5056744;28;20053;-84
2023/12/06 11:28:46;;;;;;;17.23;8.38;;;3.10;89.70;;;;;;5057538;28;20502;-82
2023/12/06 11:31:16;;;;;;;12.02;6.18;;;3.10;89.80;;;;;;5066772;28;20454;-84
2023/12/06 11:33:55;;;;;;;14.70;8.07;;;3.10;89.70;;;;;;5046791;28;20532;-85
2023/12/06 11:36:24;;;;;;;14.93;7.32;;;3.10;89.80;;;;;;5057835;28;20728;-83
2023/12/06 11:38:51;;;;;;;10.57;4.20;;;3.10;89.70;;;;;;5061293;28;20488;-84
2023/12/06 11:41:18;;;;;;;14.93;7.30;;;3.10;89.70;;;;;;5066615;28;20052;-85
2023/12/06 11:43:48;;;;;;;13.10;6.55;;;3.10;89.70;;;;;;5041870;28;20153;-83
2023/12/06 11:46:15;;;;;;;13.07;5.57;;;3.20;89.70;;;;;;5057574;28;20045;-84
2023/12/06 11:48:44;;;;;;;13.63;6.72;;;3.20;89.70;;;;;;5058624;28;20274;-84
2023/12/06 11:51:20;;;;;;;13.63;6.25;;;3.20;89.60;;;;;;5056846;28;20061;-83
2023/12/06 11:53:47;;;;;;;7.57;3.65;;;3.20;89.70;;;;;;5067656;28;20071;-83
2023/12/06 11:56:21;;;;;;;13.50;5.82;;;3.30;89.70;;;;;;5066076;28;20056;-83
2023/12/06 11:58:49;;;;;;;15.37;7.63;;;3.30;89.60;;;;;;5059432;28;20088;-83
2023/12/06 12:01:17;;;;;;;7.72;3.50;;;3.30;89.60;;;;;;5050559;28;20339;-84
2023/12/06 12:03:45;;;;;;;13.75;6.05;;;3.30;89.70;;;;;;5063055;28;20511;-84
2023/12/06 12:06:15;;;;;;;13.68;6.80;;;3.30;89.60;;;;;;5064507;28;20057;-84
2023/12/06 12:08:44;;;;;;;13.93;6.55;;;3.30;89.60;;;;;;5064671;28;20045;-84
2023/12/06 12:11:12;;;;;;;11.33;6.00;;;3.30;89.60;;;;;;5081041;28;20053;-83
2023/12/06 12:13:41;;;;;;;11.68;5.40;;;3.30;89.60;;;;;;5064420;28;20260;-84
2023/12/06 12:16:10;;;;;;;11.65;5.57;;;3.30;89.60;;;;;;5080908;28;20203;-83
2023/12/06 12:18:37;;;;;;;8.57;3.63;;;3.30;89.60;;;;;;5081000;28;20132;-83
2023/12/06 12:21:10;;;;;;;13.45;6.18;;;3.30;89.60;;;;;;5098653;28;20053;-83
2023/12/06 12:23:37;;;;;;;7.07;3.30;;;3.30;89.60;;;;;;5066966;28;21033;-84
2023/12/06 12:26:12;;;;;;;11.30;3.35;;;3.30;89.60;;;;;;5049924;28;20299;-84
2023/12/06 12:28:40;;;;;;;14.30;7.53;;;3.30;89.60;;;;;;5066608;28;20093;-84
2023/12/06 12:31:11;;;;;;;12.77;5.88;;;3.30;89.60;;;;;;5060320;28;20049;-84
2023/12/06 12:33:40;;;;;;;12.77;6.63;;;3.30;89.70;;;;;;5058006;28;20080;-84
2023/12/06 12:36:08;;;;;;;10.17;6.23;;;3.30;89.70;;;;;;5081680;28;20814;-84
2023/12/06 12:38:36;;;;;;;11.57;4.93;;;3.30;89.90;;;;;;5082166;28;20950;-84
2023/12/06 12:41:04;;;;;;;9.93;4.70;;;3.30;90.10;;;;;;5066284;28;20053;-84
2023/12/06 12:43:31;;;;;;;12.25;5.85;;;3.30;90.00;;;;;;5048508;28;20513;-84
2023/12/06 12:45:59;;;;;;;13.80;6.78;;;3.30;90.10;;;;;;5048496;28;20164;-84